sensor_id;sensor_type;location;lat;lon;timestamp;P1;durP1;ratioP1;P2;durP2;ratioP2
22579;SDS011;11456;47.030;15.396;2024-03-02T00:00:12;78.55;;;44.78;;
22579;SDS011;11456;47.030;15.396;2024-03-02T00:02:40;78.40;;;43.63;;
22579;SDS011;11456;47.030;15.396;2024-03-02T00:05:11;79.05;;;43.13;;
22579;SDS011;11456;47.030;15.396;2024-03-02T00:07:41;81.68;;;43.75;;
22579;SDS011;11456;47.030;15.396;2024-03-02T00:10:09;76.78;;;43.78;;
22579;SDS011;11456;47.030;15.396;2024-03-02T00:12:38;75.07;;;43.33;;
22579;SDS011;11456;47.030;15.396;2024-03-02T00:15:06;82.43;;;44.88;;
22579;SDS011;11456;47.030;15.396;2024-03-02T00:17:58;78.72;;;45.58;;
22579;SDS011;11456;47.030;15.396;2024-03-02T00:20:25;80.85;;;44.22;;
22579;SDS011;11456;47.030;15.396;2024-03-02T00:22:59;82.00;;;44.75;;
22579;SDS011;11456;47.030;15.396;2024-03-02T00:28:20;83.72;;;45.22;;
22579;SDS011;11456;47.030;15.396;2024-03-02T00:31:03;86.15;;;46.08;;
22579;SDS011;11456;47.030;15.396;2024-03-02T00:33:33;81.20;;;45.50;;
22579;SDS011;11456;47.030;15.396;2024-03-02T00:36:01;89.35;;;47.47;;
22579;SDS011;11456;47.030;15.396;2024-03-02T00:38:33;84.95;;;48.55;;
22579;SDS011;11456;47.030;15.396;2024-03-02T00:41:04;85.72;;;46.00;;
22579;SDS011;11456;47.030;15.396;2024-03-02T00:43:43;87.10;;;47.72;;
22579;SDS011;11456;47.030;15.396;2024-03-02T00:46:20;90.82;;;48.08;;
22579;SDS011;11456;47.030;15.396;2024-03-02T00:51:25;87.75;;;45.92;;
22579;SDS011;11456;47.030;15.396;2024-03-02T00:53:53;89.07;;;47.13;;
22579;SDS011;11456;47.030;15.396;2024-03-02T00:56:23;85.47;;;46.67;;
22579;SDS011;11456;47.030;15.396;2024-03-02T00:58:51;87.35;;;45.90;;
22579;SDS011;11456;47.030;15.396;2024-03-02T01:01:19;90.72;;;46.97;;
22579;SDS011;11456;47.030;15.396;2024-03-02T01:03:46;89.75;;;47.45;;
22579;SDS011;11456;47.030;15.396;2024-03-02T01:06:13;96.45;;;47.78;;
22579;SDS011;11456;47.030;15.396;2024-03-02T01:08:40;89.65;;;46.75;;
22579;SDS011;11456;47.030;15.396;2024-03-02T01:11:07;88.90;;;46.63;;
22579;SDS011;11456;47.030;15.396;2024-03-02T01:13:34;84.57;;;45.63;;
22579;SDS011;11456;47.030;15.396;2024-03-02T01:16:00;82.13;;;46.40;;
22579;SDS011;11456;47.030;15.396;2024-03-02T01:18:27;87.35;;;47.88;;
22579;SDS011;11456;47.030;15.396;2024-03-02T01:20:54;82.07;;;45.92;;
22579;SDS011;11456;47.030;15.396;2024-03-02T01:23:22;91.22;;;47.55;;
22579;SDS011;11456;47.030;15.396;2024-03-02T01:25:50;89.60;;;47.70;;
22579;SDS011;11456;47.030;15.396;2024-03-02T01:28:18;84.10;;;45.55;;
22579;SDS011;11456;47.030;15.396;2024-03-02T01:30:45;87.13;;;46.15;;
22579;SDS011;11456;47.030;15.396;2024-03-02T01:33:12;86.07;;;45.90;;
22579;SDS011;11456;47.030;15.396;2024-03-02T01:35:39;83.97;;;47.28;;
22579;SDS011;11456;47.030;15.396;2024-03-02T01:38:06;92.35;;;46.33;;
22579;SDS011;11456;47.030;15.396;2024-03-02T01:40:36;85.60;;;45.95;;
22579;SDS011;11456;47.030;15.396;2024-03-02T01:43:04;75.07;;;41.67;;
22579;SDS011;11456;47.030;15.396;2024-03-02T01:45:31;86.10;;;44.58;;
22579;SDS011;11456;47.030;15.396;2024-03-02T01:47:58;92.68;;;44.35;;
22579;SDS011;11456;47.030;15.396;2024-03-02T01:50:30;84.00;;;43.95;;
22579;SDS011;11456;47.030;15.396;2024-03-02T01:55:25;78.95;;;41.83;;
22579;SDS011;11456;47.030;15.396;2024-03-02T01:57:53;85.85;;;44.53;;
22579;SDS011;11456;47.030;15.396;2024-03-02T02:00:21;93.45;;;45.45;;
22579;SDS011;11456;47.030;15.396;2024-03-02T02:02:48;91.07;;;44.92;;
22579;SDS011;11456;47.030;15.396;2024-03-02T02:05:15;84.10;;;44.45;;
22579;SDS011;11456;47.030;15.396;2024-03-02T02:07:42;74.53;;;41.08;;
22579;SDS011;11456;47.030;15.396;2024-03-02T02:10:12;83.63;;;43.55;;
22579;SDS011;11456;47.030;15.396;2024-03-02T02:12:39;78.05;;;41.10;;
22579;SDS011;11456;47.030;15.396;2024-03-02T02:17:51;76.10;;;40.45;;
22579;SDS011;11456;47.030;15.396;2024-03-02T02:20:18;75.22;;;41.75;;
22579;SDS011;11456;47.030;15.396;2024-03-02T02:23:01;82.07;;;43.38;;
22579;SDS011;11456;47.030;15.396;2024-03-02T02:25:37;76.80;;;41.72;;
22579;SDS011;11456;47.030;15.396;2024-03-02T02:28:04;78.22;;;41.67;;
22579;SDS011;11456;47.030;15.396;2024-03-02T02:30:31;85.22;;;43.97;;
22579;SDS011;11456;47.030;15.396;2024-03-02T02:32:59;74.03;;;40.30;;
22579;SDS011;11456;47.030;15.396;2024-03-02T02:35:26;74.32;;;38.75;;
22579;SDS011;11456;47.030;15.396;2024-03-02T02:37:53;78.00;;;40.67;;
22579;SDS011;11456;47.030;15.396;2024-03-02T02:40:22;74.07;;;38.95;;
22579;SDS011;11456;47.030;15.396;2024-03-02T02:42:50;75.13;;;38.65;;
22579;SDS011;11456;47.030;15.396;2024-03-02T02:45:19;75.38;;;40.00;;
22579;SDS011;11456;47.030;15.396;2024-03-02T02:47:46;74.93;;;39.97;;
22579;SDS011;11456;47.030;15.396;2024-03-02T02:50:13;72.18;;;37.28;;
22579;SDS011;11456;47.030;15.396;2024-03-02T02:52:40;66.97;;;38.08;;
22579;SDS011;11456;47.030;15.396;2024-03-02T02:55:08;69.65;;;37.17;;
22579;SDS011;11456;47.030;15.396;2024-03-02T02:57:40;70.65;;;38.17;;
22579;SDS011;11456;47.030;15.396;2024-03-02T03:00:10;76.18;;;39.55;;
22579;SDS011;11456;47.030;15.396;2024-03-02T03:02:47;70.15;;;37.00;;
22579;SDS011;11456;47.030;15.396;2024-03-02T03:05:17;68.50;;;37.60;;
22579;SDS011;11456;47.030;15.396;2024-03-02T03:07:45;75.57;;;37.25;;
22579;SDS011;11456;47.030;15.396;2024-03-02T03:10:12;71.05;;;35.60;;
22579;SDS011;11456;47.030;15.396;2024-03-02T03:12:40;68.82;;;36.38;;
22579;SDS011;11456;47.030;15.396;2024-03-02T03:15:10;74.78;;;36.88;;
22579;SDS011;11456;47.030;15.396;2024-03-02T03:17:38;64.20;;;34.92;;
22579;SDS011;11456;47.030;15.396;2024-03-02T03:20:05;67.72;;;35.75;;
22579;SDS011;11456;47.030;15.396;2024-03-02T03:22:36;73.63;;;36.45;;
22579;SDS011;11456;47.030;15.396;2024-03-02T03:25:03;67.40;;;37.13;;
22579;SDS011;11456;47.030;15.396;2024-03-02T03:27:30;68.40;;;36.00;;
22579;SDS011;11456;47.030;15.396;2024-03-02T03:29:57;69.95;;;36.17;;
22579;SDS011;11456;47.030;15.396;2024-03-02T03:32:23;71.57;;;36.65;;
22579;SDS011;11456;47.030;15.396;2024-03-02T03:34:51;67.47;;;36.13;;
22579;SDS011;11456;47.030;15.396;2024-03-02T03:37:18;64.35;;;34.05;;
22579;SDS011;11456;47.030;15.396;2024-03-02T03:39:44;66.63;;;35.88;;
22579;SDS011;11456;47.030;15.396;2024-03-02T03:42:11;69.43;;;35.15;;
22579;SDS011;11456;47.030;15.396;2024-03-02T03:44:38;65.65;;;34.75;;
22579;SDS011;11456;47.030;15.396;2024-03-02T03:47:06;66.88;;;34.75;;
22579;SDS011;11456;47.030;15.396;2024-03-02T03:49:33;62.50;;;32.72;;
22579;SDS011;11456;47.030;15.396;2024-03-02T03:52:00;59.90;;;33.55;;
22579;SDS011;11456;47.030;15.396;2024-03-02T03:54:26;66.88;;;34.58;;
22579;SDS011;11456;47.030;15.396;2024-03-02T03:56:53;66.60;;;35.28;;
22579;SDS011;11456;47.030;15.396;2024-03-02T03:59:20;68.03;;;35.10;;
22579;SDS011;11456;47.030;15.396;2024-03-02T04:01:46;63.63;;;34.63;;
22579;SDS011;11456;47.030;15.396;2024-03-02T04:04:13;70.18;;;34.58;;
22579;SDS011;11456;47.030;15.396;2024-03-02T04:06:40;62.55;;;34.08;;
22579;SDS011;11456;47.030;15.396;2024-03-02T04:09:07;65.53;;;35.75;;
22579;SDS011;11456;47.030;15.396;2024-03-02T04:11:33;62.53;;;32.95;;
22579;SDS011;11456;47.030;15.396;2024-03-02T04:14:00;62.60;;;33.40;;
22579;SDS011;11456;47.030;15.396;2024-03-02T04:16:27;61.72;;;33.55;;
22579;SDS011;11456;47.030;15.396;2024-03-02T04:18:55;59.78;;;31.77;;
22579;SDS011;11456;47.030;15.396;2024-03-02T04:21:21;65.78;;;35.40;;
22579;SDS011;11456;47.030;15.396;2024-03-02T04:23:48;63.75;;;33.80;;
22579;SDS011;11456;47.030;15.396;2024-03-02T04:26:15;67.07;;;34.85;;
22579;SDS011;11456;47.030;15.396;2024-03-02T04:28:46;66.57;;;32.88;;
22579;SDS011;11456;47.030;15.396;2024-03-02T04:31:12;62.92;;;34.58;;
22579;SDS011;11456;47.030;15.396;2024-03-02T04:33:41;65.47;;;33.08;;
22579;SDS011;11456;47.030;15.396;2024-03-02T04:36:07;64.35;;;34.22;;
22579;SDS011;11456;47.030;15.396;2024-03-02T04:38:36;60.53;;;34.60;;
22579;SDS011;11456;47.030;15.396;2024-03-02T04:41:03;63.33;;;33.30;;
22579;SDS011;11456;47.030;15.396;2024-03-02T04:43:34;69.10;;;34.25;;
22579;SDS011;11456;47.030;15.396;2024-03-02T04:46:01;62.08;;;33.10;;
22579;SDS011;11456;47.030;15.396;2024-03-02T04:48:28;57.92;;;32.13;;
22579;SDS011;11456;47.030;15.396;2024-03-02T04:50:55;59.70;;;32.88;;
22579;SDS011;11456;47.030;15.396;2024-03-02T04:53:22;63.05;;;34.40;;
22579;SDS011;11456;47.030;15.396;2024-03-02T04:55:48;64.10;;;32.55;;
22579;SDS011;11456;47.030;15.396;2024-03-02T04:58:21;58.50;;;30.95;;
22579;SDS011;11456;47.030;15.396;2024-03-02T05:00:48;58.78;;;29.88;;
22579;SDS011;11456;47.030;15.396;2024-03-02T05:03:14;54.38;;;29.95;;
22579;SDS011;11456;47.030;15.396;2024-03-02T05:05:41;57.13;;;31.42;;
22579;SDS011;11456;47.030;15.396;2024-03-02T05:08:08;56.55;;;31.45;;
22579;SDS011;11456;47.030;15.396;2024-03-02T05:10:35;58.17;;;31.40;;
22579;SDS011;11456;47.030;15.396;2024-03-02T05:13:03;56.85;;;32.28;;
22579;SDS011;11456;47.030;15.396;2024-03-02T05:15:29;57.88;;;31.45;;
22579;SDS011;11456;47.030;15.396;2024-03-02T05:17:56;56.65;;;30.52;;
22579;SDS011;11456;47.030;15.396;2024-03-02T05:20:24;55.97;;;29.00;;
22579;SDS011;11456;47.030;15.396;2024-03-02T05:22:51;54.22;;;28.83;;
22579;SDS011;11456;47.030;15.396;2024-03-02T05:25:17;61.80;;;30.92;;
22579;SDS011;11456;47.030;15.396;2024-03-02T05:27:44;61.28;;;29.67;;
22579;SDS011;11456;47.030;15.396;2024-03-02T05:30:12;56.85;;;29.50;;
22579;SDS011;11456;47.030;15.396;2024-03-02T05:32:40;57.40;;;27.67;;
22579;SDS011;11456;47.030;15.396;2024-03-02T05:35:07;57.03;;;30.63;;
22579;SDS011;11456;47.030;15.396;2024-03-02T05:37:34;57.80;;;30.23;;
22579;SDS011;11456;47.030;15.396;2024-03-02T05:40:01;56.50;;;28.92;;
22579;SDS011;11456;47.030;15.396;2024-03-02T05:42:27;53.80;;;28.20;;
22579;SDS011;11456;47.030;15.396;2024-03-02T05:44:54;55.78;;;29.60;;
22579;SDS011;11456;47.030;15.396;2024-03-02T05:47:21;51.63;;;28.70;;
22579;SDS011;11456;47.030;15.396;2024-03-02T05:49:48;60.40;;;29.80;;
22579;SDS011;11456;47.030;15.396;2024-03-02T05:52:14;54.05;;;28.00;;
22579;SDS011;11456;47.030;15.396;2024-03-02T05:54:41;53.30;;;26.90;;
22579;SDS011;11456;47.030;15.396;2024-03-02T05:57:08;51.45;;;27.73;;
22579;SDS011;11456;47.030;15.396;2024-03-02T05:59:55;53.67;;;26.52;;
22579;SDS011;11456;47.030;15.396;2024-03-02T06:02:22;53.20;;;27.15;;
22579;SDS011;11456;47.030;15.396;2024-03-02T06:04:49;53.22;;;27.52;;
22579;SDS011;11456;47.030;15.396;2024-03-02T06:07:16;47.40;;;25.80;;
22579;SDS011;11456;47.030;15.396;2024-03-02T06:09:42;52.03;;;26.00;;
22579;SDS011;11456;47.030;15.396;2024-03-02T06:12:11;54.05;;;27.50;;
22579;SDS011;11456;47.030;15.396;2024-03-02T06:14:37;54.55;;;28.58;;
22579;SDS011;11456;47.030;15.396;2024-03-02T06:17:04;52.85;;;26.85;;
22579;SDS011;11456;47.030;15.396;2024-03-02T06:19:31;58.28;;;28.75;;
22579;SDS011;11456;47.030;15.396;2024-03-02T06:21:58;59.63;;;29.50;;
22579;SDS011;11456;47.030;15.396;2024-03-02T06:24:25;60.53;;;30.20;;
22579;SDS011;11456;47.030;15.396;2024-03-02T06:26:52;57.28;;;30.20;;
22579;SDS011;11456;47.030;15.396;2024-03-02T06:29:19;54.67;;;29.45;;
22579;SDS011;11456;47.030;15.396;2024-03-02T06:31:46;54.70;;;29.75;;
22579;SDS011;11456;47.030;15.396;2024-03-02T06:34:12;55.30;;;28.88;;
22579;SDS011;11456;47.030;15.396;2024-03-02T06:36:39;57.72;;;29.65;;
22579;SDS011;11456;47.030;15.396;2024-03-02T06:39:07;58.35;;;29.55;;
22579;SDS011;11456;47.030;15.396;2024-03-02T06:41:34;59.40;;;31.02;;
22579;SDS011;11456;47.030;15.396;2024-03-02T06:44:01;56.28;;;29.38;;
22579;SDS011;11456;47.030;15.396;2024-03-02T06:46:27;61.17;;;29.75;;
22579;SDS011;11456;47.030;15.396;2024-03-02T06:48:54;59.65;;;28.27;;
22579;SDS011;11456;47.030;15.396;2024-03-02T06:51:21;59.08;;;29.10;;
22579;SDS011;11456;47.030;15.396;2024-03-02T06:53:48;55.17;;;29.15;;
22579;SDS011;11456;47.030;15.396;2024-03-02T06:56:14;52.50;;;28.65;;
22579;SDS011;11456;47.030;15.396;2024-03-02T06:58:41;55.08;;;28.17;;
22579;SDS011;11456;47.030;15.396;2024-03-02T07:01:09;55.17;;;29.00;;
22579;SDS011;11456;47.030;15.396;2024-03-02T07:03:36;57.88;;;28.92;;
22579;SDS011;11456;47.030;15.396;2024-03-02T07:06:04;55.50;;;28.10;;
22579;SDS011;11456;47.030;15.396;2024-03-02T07:08:31;48.35;;;27.40;;
22579;SDS011;11456;47.030;15.396;2024-03-02T07:10:57;50.70;;;27.52;;
22579;SDS011;11456;47.030;15.396;2024-03-02T07:13:24;51.72;;;27.20;;
22579;SDS011;11456;47.030;15.396;2024-03-02T07:15:51;48.88;;;26.15;;
22579;SDS011;11456;47.030;15.396;2024-03-02T07:18:30;50.65;;;25.98;;
22579;SDS011;11456;47.030;15.396;2024-03-02T07:20:57;49.22;;;26.23;;
22579;SDS011;11456;47.030;15.396;2024-03-02T07:23:27;45.55;;;25.10;;
22579;SDS011;11456;47.030;15.396;2024-03-02T07:25:54;46.83;;;26.38;;
22579;SDS011;11456;47.030;15.396;2024-03-02T07:28:25;44.65;;;24.75;;
22579;SDS011;11456;47.030;15.396;2024-03-02T07:31:03;45.00;;;24.55;;
22579;SDS011;11456;47.030;15.396;2024-03-02T07:33:31;44.45;;;23.17;;
22579;SDS011;11456;47.030;15.396;2024-03-02T07:35:58;43.42;;;23.85;;
22579;SDS011;11456;47.030;15.396;2024-03-02T07:38:30;43.55;;;23.90;;
22579;SDS011;11456;47.030;15.396;2024-03-02T07:40:58;48.67;;;25.58;;
22579;SDS011;11456;47.030;15.396;2024-03-02T07:43:26;42.30;;;23.80;;
22579;SDS011;11456;47.030;15.396;2024-03-02T07:45:53;79.45;;;26.10;;
22579;SDS011;11456;47.030;15.396;2024-03-02T07:48:20;43.95;;;24.95;;
22579;SDS011;11456;47.030;15.396;2024-03-02T07:50:47;45.13;;;23.15;;
22579;SDS011;11456;47.030;15.396;2024-03-02T07:53:14;44.13;;;22.70;;
22579;SDS011;11456;47.030;15.396;2024-03-02T07:55:41;42.45;;;23.45;;
22579;SDS011;11456;47.030;15.396;2024-03-02T07:58:08;41.45;;;24.02;;
22579;SDS011;11456;47.030;15.396;2024-03-02T08:00:35;45.10;;;24.17;;
22579;SDS011;11456;47.030;15.396;2024-03-02T08:03:02;39.53;;;22.88;;
22579;SDS011;11456;47.030;15.396;2024-03-02T08:05:29;43.22;;;22.38;;
22579;SDS011;11456;47.030;15.396;2024-03-02T08:07:56;41.67;;;22.92;;
22579;SDS011;11456;47.030;15.396;2024-03-02T08:10:23;41.58;;;23.20;;
22579;SDS011;11456;47.030;15.396;2024-03-02T08:12:50;46.28;;;23.50;;
22579;SDS011;11456;47.030;15.396;2024-03-02T08:15:16;36.20;;;20.77;;
22579;SDS011;11456;47.030;15.396;2024-03-02T08:17:43;40.72;;;23.00;;
22579;SDS011;11456;47.030;15.396;2024-03-02T08:20:16;37.00;;;22.10;;
22579;SDS011;11456;47.030;15.396;2024-03-02T08:22:42;37.88;;;21.33;;
22579;SDS011;11456;47.030;15.396;2024-03-02T08:25:09;47.58;;;24.52;;
22579;SDS011;11456;47.030;15.396;2024-03-02T08:27:36;40.70;;;24.17;;
22579;SDS011;11456;47.030;15.396;2024-03-02T08:30:03;45.97;;;24.50;;
22579;SDS011;11456;47.030;15.396;2024-03-02T08:32:33;45.78;;;24.80;;
22579;SDS011;11456;47.030;15.396;2024-03-02T08:35:00;53.40;;;25.13;;
22579;SDS011;11456;47.030;15.396;2024-03-02T08:37:27;49.08;;;25.23;;
22579;SDS011;11456;47.030;15.396;2024-03-02T08:39:54;46.67;;;26.10;;
22579;SDS011;11456;47.030;15.396;2024-03-02T08:42:21;47.00;;;26.48;;
22579;SDS011;11456;47.030;15.396;2024-03-02T08:44:49;44.42;;;24.73;;
22579;SDS011;11456;47.030;15.396;2024-03-02T08:47:16;43.53;;;24.50;;
22579;SDS011;11456;47.030;15.396;2024-03-02T08:49:43;46.78;;;25.33;;
22579;SDS011;11456;47.030;15.396;2024-03-02T08:52:09;42.90;;;24.20;;
22579;SDS011;11456;47.030;15.396;2024-03-02T08:54:36;45.45;;;24.08;;
22579;SDS011;11456;47.030;15.396;2024-03-02T08:57:04;38.75;;;24.10;;
22579;SDS011;11456;47.030;15.396;2024-03-02T08:59:32;48.63;;;25.45;;
22579;SDS011;11456;47.030;15.396;2024-03-02T09:01:58;45.05;;;24.38;;
22579;SDS011;11456;47.030;15.396;2024-03-02T09:04:25;43.25;;;24.67;;
22579;SDS011;11456;47.030;15.396;2024-03-02T09:06:55;45.10;;;24.50;;
22579;SDS011;11456;47.030;15.396;2024-03-02T09:09:22;39.90;;;24.30;;
22579;SDS011;11456;47.030;15.396;2024-03-02T09:11:49;44.97;;;26.23;;
22579;SDS011;11456;47.030;15.396;2024-03-02T09:14:15;47.65;;;24.95;;
22579;SDS011;11456;47.030;15.396;2024-03-02T09:16:42;50.30;;;25.13;;
22579;SDS011;11456;47.030;15.396;2024-03-02T09:19:09;47.67;;;25.33;;
22579;SDS011;11456;47.030;15.396;2024-03-02T09:21:36;42.25;;;24.45;;
22579;SDS011;11456;47.030;15.396;2024-03-02T09:24:04;45.22;;;24.73;;
22579;SDS011;11456;47.030;15.396;2024-03-02T09:26:30;46.55;;;25.05;;
22579;SDS011;11456;47.030;15.396;2024-03-02T09:28:57;45.25;;;25.15;;
22579;SDS011;11456;47.030;15.396;2024-03-02T09:31:24;41.97;;;24.02;;
22579;SDS011;11456;47.030;15.396;2024-03-02T09:33:51;46.50;;;24.70;;
22579;SDS011;11456;47.030;15.396;2024-03-02T09:36:18;42.05;;;22.40;;
22579;SDS011;11456;47.030;15.396;2024-03-02T09:38:46;43.50;;;23.08;;
22579;SDS011;11456;47.030;15.396;2024-03-02T09:41:14;37.08;;;21.88;;
22579;SDS011;11456;47.030;15.396;2024-03-02T09:43:41;37.28;;;20.35;;
22579;SDS011;11456;47.030;15.396;2024-03-02T09:46:09;36.83;;;21.00;;
22579;SDS011;11456;47.030;15.396;2024-03-02T09:48:37;33.75;;;19.42;;
22579;SDS011;11456;47.030;15.396;2024-03-02T09:51:04;37.08;;;20.17;;
22579;SDS011;11456;47.030;15.396;2024-03-02T09:53:31;33.55;;;20.33;;
22579;SDS011;11456;47.030;15.396;2024-03-02T09:56:00;36.25;;;20.63;;
22579;SDS011;11456;47.030;15.396;2024-03-02T09:58:27;36.03;;;18.98;;
22579;SDS011;11456;47.030;15.396;2024-03-02T10:00:54;34.72;;;20.90;;
22579;SDS011;11456;47.030;15.396;2024-03-02T10:03:20;34.45;;;20.10;;
22579;SDS011;11456;47.030;15.396;2024-03-02T10:05:49;34.30;;;20.05;;
22579;SDS011;11456;47.030;15.396;2024-03-02T10:08:16;33.90;;;20.40;;
22579;SDS011;11456;47.030;15.396;2024-03-02T10:10:43;34.10;;;19.17;;
22579;SDS011;11456;47.030;15.396;2024-03-02T10:13:11;32.28;;;19.58;;
22579;SDS011;11456;47.030;15.396;2024-03-02T10:15:39;33.75;;;19.55;;
22579;SDS011;11456;47.030;15.396;2024-03-02T10:18:11;31.90;;;18.88;;
22579;SDS011;11456;47.030;15.396;2024-03-02T10:20:39;31.93;;;19.17;;
22579;SDS011;11456;47.030;15.396;2024-03-02T10:23:13;30.35;;;18.77;;
22579;SDS011;11456;47.030;15.396;2024-03-02T10:25:41;36.97;;;19.60;;
22579;SDS011;11456;47.030;15.396;2024-03-02T10:28:20;32.42;;;19.25;;
22579;SDS011;11456;47.030;15.396;2024-03-02T10:30:47;36.45;;;20.40;;
22579;SDS011;11456;47.030;15.396;2024-03-02T10:33:15;31.85;;;18.35;;
22579;SDS011;11456;47.030;15.396;2024-03-02T10:35:43;35.05;;;20.05;;
22579;SDS011;11456;47.030;15.396;2024-03-02T10:38:10;37.20;;;18.27;;
22579;SDS011;11456;47.030;15.396;2024-03-02T10:40:38;32.95;;;19.33;;
22579;SDS011;11456;47.030;15.396;2024-03-02T10:43:05;31.50;;;17.92;;
22579;SDS011;11456;47.030;15.396;2024-03-02T10:45:34;29.88;;;17.05;;
22579;SDS011;11456;47.030;15.396;2024-03-02T10:48:01;26.80;;;16.33;;
22579;SDS011;11456;47.030;15.396;2024-03-02T10:50:29;25.30;;;16.02;;
22579;SDS011;11456;47.030;15.396;2024-03-02T10:52:56;28.05;;;17.10;;
22579;SDS011;11456;47.030;15.396;2024-03-02T10:55:23;30.73;;;17.65;;
22579;SDS011;11456;47.030;15.396;2024-03-02T10:57:51;30.23;;;15.80;;
22579;SDS011;11456;47.030;15.396;2024-03-02T11:00:20;26.05;;;15.45;;
22579;SDS011;11456;47.030;15.396;2024-03-02T11:02:56;32.10;;;16.65;;
22579;SDS011;11456;47.030;15.396;2024-03-02T11:05:33;23.92;;;15.50;;
22579;SDS011;11456;47.030;15.396;2024-03-02T11:08:24;28.30;;;15.82;;
22579;SDS011;11456;47.030;15.396;2024-03-02T11:10:52;29.65;;;15.45;;
22579;SDS011;11456;47.030;15.396;2024-03-02T11:13:27;27.27;;;15.82;;
22579;SDS011;11456;47.030;15.396;2024-03-02T11:16:04;26.08;;;15.40;;
22579;SDS011;11456;47.030;15.396;2024-03-02T11:18:36;27.95;;;13.70;;
22579;SDS011;11456;47.030;15.396;2024-03-02T11:21:04;30.33;;;13.50;;
22579;SDS011;11456;47.030;15.396;2024-03-02T11:23:32;28.45;;;14.57;;
22579;SDS011;11456;47.030;15.396;2024-03-02T11:28:50;24.42;;;14.05;;
22579;SDS011;11456;47.030;15.396;2024-03-02T11:31:17;32.35;;;15.63;;
22579;SDS011;11456;47.030;15.396;2024-03-02T11:33:44;26.58;;;14.32;;
22579;SDS011;11456;47.030;15.396;2024-03-02T11:36:10;27.25;;;15.10;;
22579;SDS011;11456;47.030;15.396;2024-03-02T11:38:38;23.60;;;13.43;;
22579;SDS011;11456;47.030;15.396;2024-03-02T11:41:08;31.85;;;15.50;;
22579;SDS011;11456;47.030;15.396;2024-03-02T11:43:38;23.70;;;12.63;;
22579;SDS011;11456;47.030;15.396;2024-03-02T11:46:06;24.58;;;12.93;;
22579;SDS011;11456;47.030;15.396;2024-03-02T11:48:36;23.48;;;12.80;;
22579;SDS011;11456;47.030;15.396;2024-03-02T11:51:05;23.48;;;12.60;;
22579;SDS011;11456;47.030;15.396;2024-03-02T11:53:32;29.30;;;12.32;;
22579;SDS011;11456;47.030;15.396;2024-03-02T11:56:02;22.38;;;11.68;;
22579;SDS011;11456;47.030;15.396;2024-03-02T11:58:29;21.17;;;11.35;;
22579;SDS011;11456;47.030;15.396;2024-03-02T12:00:56;20.23;;;11.10;;
22579;SDS011;11456;47.030;15.396;2024-03-02T12:03:24;21.67;;;11.60;;
22579;SDS011;11456;47.030;15.396;2024-03-02T12:05:53;17.90;;;10.98;;
22579;SDS011;11456;47.030;15.396;2024-03-02T12:08:20;22.65;;;9.52;;
22579;SDS011;11456;47.030;15.396;2024-03-02T12:11:00;18.27;;;10.80;;
22579;SDS011;11456;47.030;15.396;2024-03-02T12:13:30;17.50;;;9.95;;
22579;SDS011;11456;47.030;15.396;2024-03-02T12:15:57;17.70;;;9.70;;
22579;SDS011;11456;47.030;15.396;2024-03-02T12:18:24;15.02;;;9.52;;
22579;SDS011;11456;47.030;15.396;2024-03-02T12:20:52;16.33;;;9.52;;
22579;SDS011;11456;47.030;15.396;2024-03-02T12:23:19;15.52;;;10.52;;
22579;SDS011;11456;47.030;15.396;2024-03-02T12:25:46;19.30;;;9.93;;
22579;SDS011;11456;47.030;15.396;2024-03-02T12:28:13;24.50;;;10.35;;
22579;SDS011;11456;47.030;15.396;2024-03-02T12:30:40;16.98;;;8.93;;
22579;SDS011;11456;47.030;15.396;2024-03-02T12:33:06;15.73;;;8.90;;
22579;SDS011;11456;47.030;15.396;2024-03-02T12:35:33;20.20;;;9.90;;
22579;SDS011;11456;47.030;15.396;2024-03-02T12:38:02;17.17;;;9.60;;
22579;SDS011;11456;47.030;15.396;2024-03-02T12:40:30;18.30;;;9.13;;
22579;SDS011;11456;47.030;15.396;2024-03-02T12:42:58;15.07;;;9.40;;
22579;SDS011;11456;47.030;15.396;2024-03-02T12:45:25;15.90;;;9.68;;
22579;SDS011;11456;47.030;15.396;2024-03-02T12:47:52;19.52;;;10.00;;
22579;SDS011;11456;47.030;15.396;2024-03-02T12:50:20;18.50;;;9.70;;
22579;SDS011;11456;47.030;15.396;2024-03-02T12:52:53;16.40;;;9.65;;
22579;SDS011;11456;47.030;15.396;2024-03-02T12:55:21;19.95;;;9.93;;
22579;SDS011;11456;47.030;15.396;2024-03-02T12:57:50;19.45;;;9.30;;
22579;SDS011;11456;47.030;15.396;2024-03-02T13:00:18;20.35;;;9.02;;
22579;SDS011;11456;47.030;15.396;2024-03-02T13:02:46;17.98;;;8.40;;
22579;SDS011;11456;47.030;15.396;2024-03-02T13:05:14;17.20;;;9.60;;
22579;SDS011;11456;47.030;15.396;2024-03-02T13:07:41;15.63;;;9.40;;
22579;SDS011;11456;47.030;15.396;2024-03-02T13:10:08;14.85;;;8.52;;
22579;SDS011;11456;47.030;15.396;2024-03-02T13:12:36;14.55;;;8.32;;
22579;SDS011;11456;47.030;15.396;2024-03-02T13:15:04;12.65;;;8.55;;
22579;SDS011;11456;47.030;15.396;2024-03-02T13:17:34;15.70;;;9.00;;
22579;SDS011;11456;47.030;15.396;2024-03-02T13:20:04;20.13;;;8.85;;
22579;SDS011;11456;47.030;15.396;2024-03-02T13:22:37;13.82;;;8.05;;
22579;SDS011;11456;47.030;15.396;2024-03-02T13:25:04;17.13;;;9.10;;
22579;SDS011;11456;47.030;15.396;2024-03-02T13:27:32;19.60;;;8.45;;
22579;SDS011;11456;47.030;15.396;2024-03-02T13:29:59;18.30;;;7.85;;
22579;SDS011;11456;47.030;15.396;2024-03-02T13:32:26;13.95;;;8.40;;
22579;SDS011;11456;47.030;15.396;2024-03-02T13:34:53;14.52;;;8.40;;
22579;SDS011;11456;47.030;15.396;2024-03-02T13:37:20;20.05;;;9.60;;
22579;SDS011;11456;47.030;15.396;2024-03-02T13:39:47;13.07;;;8.05;;
22579;SDS011;11456;47.030;15.396;2024-03-02T13:42:14;15.70;;;8.70;;
22579;SDS011;11456;47.030;15.396;2024-03-02T13:44:45;16.08;;;8.93;;
22579;SDS011;11456;47.030;15.396;2024-03-02T13:47:14;15.77;;;8.27;;
22579;SDS011;11456;47.030;15.396;2024-03-02T13:49:41;17.45;;;8.88;;
22579;SDS011;11456;47.030;15.396;2024-03-02T13:52:12;20.47;;;9.03;;
22579;SDS011;11456;47.030;15.396;2024-03-02T13:54:44;16.67;;;8.60;;
22579;SDS011;11456;47.030;15.396;2024-03-02T13:57:13;20.05;;;9.23;;
22579;SDS011;11456;47.030;15.396;2024-03-02T13:59:40;20.60;;;9.55;;
22579;SDS011;11456;47.030;15.396;2024-03-02T14:02:08;18.75;;;8.88;;
22579;SDS011;11456;47.030;15.396;2024-03-02T14:04:35;15.27;;;8.95;;
22579;SDS011;11456;47.030;15.396;2024-03-02T14:07:03;17.02;;;9.73;;
22579;SDS011;11456;47.030;15.396;2024-03-02T14:09:30;19.23;;;10.18;;
22579;SDS011;11456;47.030;15.396;2024-03-02T14:11:57;19.52;;;11.27;;
22579;SDS011;11456;47.030;15.396;2024-03-02T14:14:24;22.67;;;11.40;;
22579;SDS011;11456;47.030;15.396;2024-03-02T14:16:51;17.88;;;10.85;;
22579;SDS011;11456;47.030;15.396;2024-03-02T14:19:19;18.15;;;11.07;;
22579;SDS011;11456;47.030;15.396;2024-03-02T14:21:47;19.50;;;11.93;;
22579;SDS011;11456;47.030;15.396;2024-03-02T14:24:14;26.63;;;12.55;;
22579;SDS011;11456;47.030;15.396;2024-03-02T14:26:41;23.40;;;11.25;;
22579;SDS011;11456;47.030;15.396;2024-03-02T14:29:08;19.90;;;11.10;;